ウラジオストク の空港の天気 - METARとTAF

ウラジオストク空港 ( UHWW / VVO ) - ロシア ウラジオストク
飛行場実況気象(Metar)
観測時間05/27 14:00 VLAT (05/27 04:00 UTC)
風向・風速北北西 5m/s
視程10km以上
天気現象
全天の8割程度の雲 雲底高度 910m
気温18℃
湿度52%
気圧1002hPa
METARUHWW 270400Z 34005MPS 9999 BKN030CB 18/08 Q1002 R25L/0///70 TEMPO VRB13MPS 3100 -TSRA BKN012CB RMK QFE750
過去の天気等 Google飛行場航空写真 Wunderground天気予報

過去48時間のMETAR

飛行場予報(TAF)
発表時間: 5/27 12:00 VLAT (5/27 02:00 UTC)
予報対象時間: 27日13時 VLAT ~ 28日13時 VLAT
風向・風速北西 3m/s
視程5000m
天気現象弱いしゅう雨
全天の8割程度の積乱雲 雲底高度 460m
27日13時 VLAT ~ 27日21時 VLAT に一時的に
風向・風速不定 13m/s
視程3100m
天気現象弱い雷雨
全天の8割程度の雲 雲底高度 340m
全天の8割程度の積乱雲 雲底高度 610m
27日21時 VLAT ~ 28日10時 VLAT に一時的に
視程400m
天気現象
全天を覆う雲 鉛直視程 60m
28日10時 VLAT ~ 28日12時 VLAT に徐々に
風向・風速南南西 3m/s
視程3100m
天気現象もや
TAF UHWW 270200Z 2703/2803 32003MPS 5000 -SHRA BKN015CB
TEMPO 2703/2711 VRB13MPS 3100 -TSRA BKN011 BKN020CB
TEMPO 2711/2724 0400 FG VV002
BECMG 2800/2802 20003MPS 3100 BR